sensor_id;sensor_type;location;lat;lon;timestamp;P1;durP1;ratioP1;P2;durP2;ratioP2
25153;SDS011;47555;51.038;6.280;2022-10-31T00:02:04;11.55;;;6.18;;
25153;SDS011;47555;51.038;6.280;2022-10-31T00:04:29;15.60;;;7.80;;
25153;SDS011;47555;51.038;6.280;2022-10-31T00:06:55;10.73;;;6.57;;
25153;SDS011;47555;51.038;6.280;2022-10-31T00:09:21;12.68;;;6.97;;
25153;SDS011;47555;51.038;6.280;2022-10-31T00:11:46;12.50;;;7.15;;
25153;SDS011;47555;51.038;6.280;2022-10-31T00:14:12;12.93;;;6.88;;
25153;SDS011;47555;51.038;6.280;2022-10-31T00:16:37;14.73;;;7.22;;
25153;SDS011;47555;51.038;6.280;2022-10-31T00:19:04;12.43;;;6.90;;
25153;SDS011;47555;51.038;6.280;2022-10-31T00:21:31;10.40;;;6.90;;
25153;SDS011;47555;51.038;6.280;2022-10-31T00:23:57;13.07;;;6.97;;
25153;SDS011;47555;51.038;6.280;2022-10-31T00:26:24;14.20;;;6.80;;
25153;SDS011;47555;51.038;6.280;2022-10-31T00:28:51;10.88;;;6.45;;
25153;SDS011;47555;51.038;6.280;2022-10-31T00:31:17;13.95;;;6.90;;
25153;SDS011;47555;51.038;6.280;2022-10-31T00:33:43;11.20;;;6.40;;
25153;SDS011;47555;51.038;6.280;2022-10-31T00:36:13;12.07;;;7.05;;
25153;SDS011;47555;51.038;6.280;2022-10-31T00:38:41;11.02;;;6.10;;
25153;SDS011;47555;51.038;6.280;2022-10-31T00:41:07;9.18;;;6.40;;
25153;SDS011;47555;51.038;6.280;2022-10-31T00:43:33;11.05;;;6.47;;
25153;SDS011;47555;51.038;6.280;2022-10-31T00:45:59;8.35;;;6.10;;
25153;SDS011;47555;51.038;6.280;2022-10-31T00:48:24;9.77;;;6.05;;
25153;SDS011;47555;51.038;6.280;2022-10-31T00:50:50;9.57;;;6.32;;
25153;SDS011;47555;51.038;6.280;2022-10-31T00:53:16;7.38;;;6.00;;
25153;SDS011;47555;51.038;6.280;2022-10-31T00:55:41;12.38;;;6.40;;
25153;SDS011;47555;51.038;6.280;2022-10-31T00:58:07;12.70;;;6.47;;
25153;SDS011;47555;51.038;6.280;2022-10-31T01:00:33;9.93;;;6.05;;
25153;SDS011;47555;51.038;6.280;2022-10-31T01:02:59;9.35;;;6.07;;
25153;SDS011;47555;51.038;6.280;2022-10-31T01:05:24;11.88;;;7.43;;
25153;SDS011;47555;51.038;6.280;2022-10-31T01:07:50;11.18;;;6.60;;
25153;SDS011;47555;51.038;6.280;2022-10-31T01:10:16;11.93;;;6.82;;
25153;SDS011;47555;51.038;6.280;2022-10-31T01:12:44;10.88;;;6.93;;
25153;SDS011;47555;51.038;6.280;2022-10-31T01:15:16;13.82;;;7.18;;
25153;SDS011;47555;51.038;6.280;2022-10-31T01:17:43;12.75;;;6.53;;
25153;SDS011;47555;51.038;6.280;2022-10-31T01:20:09;10.25;;;6.63;;
25153;SDS011;47555;51.038;6.280;2022-10-31T01:22:37;10.38;;;6.53;;
25153;SDS011;47555;51.038;6.280;2022-10-31T01:25:02;11.75;;;7.10;;
25153;SDS011;47555;51.038;6.280;2022-10-31T01:27:29;16.55;;;8.05;;
25153;SDS011;47555;51.038;6.280;2022-10-31T01:29:56;13.38;;;7.22;;
25153;SDS011;47555;51.038;6.280;2022-10-31T01:32:22;15.98;;;8.00;;
25153;SDS011;47555;51.038;6.280;2022-10-31T01:34:47;12.95;;;7.68;;
25153;SDS011;47555;51.038;6.280;2022-10-31T01:37:13;15.93;;;7.38;;
25153;SDS011;47555;51.038;6.280;2022-10-31T01:39:39;11.52;;;7.28;;
25153;SDS011;47555;51.038;6.280;2022-10-31T01:42:05;13.63;;;7.88;;
25153;SDS011;47555;51.038;6.280;2022-10-31T01:52:06;11.73;;;6.70;;
25153;SDS011;47555;51.038;6.280;2022-10-31T01:54:39;11.10;;;7.18;;
25153;SDS011;47555;51.038;6.280;2022-10-31T01:57:08;11.32;;;7.53;;
25153;SDS011;47555;51.038;6.280;2022-10-31T01:59:38;11.05;;;6.93;;
25153;SDS011;47555;51.038;6.280;2022-10-31T02:04:35;14.13;;;7.60;;
25153;SDS011;47555;51.038;6.280;2022-10-31T02:07:06;18.77;;;9.15;;
25153;SDS011;47555;51.038;6.280;2022-10-31T02:09:35;16.70;;;8.00;;
25153;SDS011;47555;51.038;6.280;2022-10-31T02:12:02;11.93;;;7.45;;
25153;SDS011;47555;51.038;6.280;2022-10-31T02:14:29;13.70;;;7.95;;
25153;SDS011;47555;51.038;6.280;2022-10-31T02:16:56;14.00;;;8.07;;
25153;SDS011;47555;51.038;6.280;2022-10-31T02:22:04;13.65;;;8.13;;
25153;SDS011;47555;51.038;6.280;2022-10-31T02:27:31;15.73;;;7.93;;
25153;SDS011;47555;51.038;6.280;2022-10-31T02:30:51;14.93;;;7.13;;
25153;SDS011;47555;51.038;6.280;2022-10-31T02:36:28;15.90;;;8.20;;
25153;SDS011;47555;51.038;6.280;2022-10-31T02:44:45;17.40;;;8.90;;
25153;SDS011;47555;51.038;6.280;2022-10-31T02:47:11;15.55;;;8.20;;
25153;SDS011;47555;51.038;6.280;2022-10-31T02:50:00;17.80;;;9.68;;
25153;SDS011;47555;51.038;6.280;2022-10-31T02:52:30;16.92;;;9.63;;
25153;SDS011;47555;51.038;6.280;2022-10-31T02:54:57;16.50;;;9.43;;
25153;SDS011;47555;51.038;6.280;2022-10-31T02:57:24;18.42;;;9.13;;
25153;SDS011;47555;51.038;6.280;2022-10-31T02:59:54;18.48;;;8.95;;
25153;SDS011;47555;51.038;6.280;2022-10-31T03:05:03;13.93;;;8.00;;
25153;SDS011;47555;51.038;6.280;2022-10-31T03:16:14;21.50;;;12.93;;
25153;SDS011;47555;51.038;6.280;2022-10-31T03:18:49;20.05;;;11.23;;
25153;SDS011;47555;51.038;6.280;2022-10-31T03:21:32;27.48;;;12.63;;
25153;SDS011;47555;51.038;6.280;2022-10-31T03:24:08;18.52;;;11.32;;
25153;SDS011;47555;51.038;6.280;2022-10-31T03:26:35;19.35;;;10.52;;
25153;SDS011;47555;51.038;6.280;2022-10-31T03:29:07;17.40;;;9.73;;
25153;SDS011;47555;51.038;6.280;2022-10-31T03:31:37;20.58;;;10.40;;
25153;SDS011;47555;51.038;6.280;2022-10-31T03:34:08;18.23;;;10.68;;
25153;SDS011;47555;51.038;6.280;2022-10-31T03:36:35;19.90;;;10.48;;
25153;SDS011;47555;51.038;6.280;2022-10-31T03:39:05;22.08;;;11.82;;
25153;SDS011;47555;51.038;6.280;2022-10-31T03:41:33;18.40;;;9.93;;
25153;SDS011;47555;51.038;6.280;2022-10-31T03:44:04;20.13;;;12.10;;
25153;SDS011;47555;51.038;6.280;2022-10-31T03:46:34;27.00;;;13.95;;
25153;SDS011;47555;51.038;6.280;2022-10-31T03:49:00;27.30;;;14.15;;
25153;SDS011;47555;51.038;6.280;2022-10-31T03:57:00;26.33;;;13.90;;
25153;SDS011;47555;51.038;6.280;2022-10-31T03:59:53;26.95;;;13.73;;
25153;SDS011;47555;51.038;6.280;2022-10-31T04:02:30;25.67;;;12.07;;
25153;SDS011;47555;51.038;6.280;2022-10-31T04:04:58;22.23;;;11.68;;
25153;SDS011;47555;51.038;6.280;2022-10-31T04:07:26;20.17;;;10.40;;
25153;SDS011;47555;51.038;6.280;2022-10-31T04:09:55;18.63;;;10.05;;
25153;SDS011;47555;51.038;6.280;2022-10-31T04:12:22;21.23;;;10.65;;
25153;SDS011;47555;51.038;6.280;2022-10-31T04:14:50;21.55;;;10.63;;
25153;SDS011;47555;51.038;6.280;2022-10-31T04:17:18;18.38;;;10.20;;
25153;SDS011;47555;51.038;6.280;2022-10-31T04:19:46;18.67;;;9.38;;
25153;SDS011;47555;51.038;6.280;2022-10-31T04:22:12;16.80;;;9.65;;
25153;SDS011;47555;51.038;6.280;2022-10-31T04:24:38;16.70;;;9.85;;
25153;SDS011;47555;51.038;6.280;2022-10-31T04:27:05;17.30;;;10.15;;
25153;SDS011;47555;51.038;6.280;2022-10-31T04:29:30;18.83;;;9.88;;
25153;SDS011;47555;51.038;6.280;2022-10-31T04:31:56;24.10;;;10.90;;
25153;SDS011;47555;51.038;6.280;2022-10-31T04:34:22;21.48;;;11.25;;
25153;SDS011;47555;51.038;6.280;2022-10-31T04:36:47;19.27;;;10.00;;
25153;SDS011;47555;51.038;6.280;2022-10-31T04:39:13;20.13;;;10.65;;
25153;SDS011;47555;51.038;6.280;2022-10-31T04:41:38;20.80;;;11.55;;
25153;SDS011;47555;51.038;6.280;2022-10-31T04:44:04;22.75;;;13.43;;
25153;SDS011;47555;51.038;6.280;2022-10-31T04:46:29;17.52;;;9.65;;
25153;SDS011;47555;51.038;6.280;2022-10-31T04:48:55;22.73;;;12.02;;
25153;SDS011;47555;51.038;6.280;2022-10-31T04:51:21;22.88;;;12.55;;
25153;SDS011;47555;51.038;6.280;2022-10-31T04:53:47;21.58;;;11.60;;
25153;SDS011;47555;51.038;6.280;2022-10-31T04:56:13;18.90;;;11.00;;
25153;SDS011;47555;51.038;6.280;2022-10-31T04:58:38;22.55;;;11.93;;
25153;SDS011;47555;51.038;6.280;2022-10-31T05:01:04;22.73;;;10.95;;
25153;SDS011;47555;51.038;6.280;2022-10-31T05:03:30;18.60;;;11.52;;
25153;SDS011;47555;51.038;6.280;2022-10-31T05:05:55;20.95;;;11.50;;
25153;SDS011;47555;51.038;6.280;2022-10-31T05:08:21;24.95;;;13.00;;
25153;SDS011;47555;51.038;6.280;2022-10-31T05:10:46;22.70;;;12.45;;
25153;SDS011;47555;51.038;6.280;2022-10-31T05:13:12;20.42;;;11.60;;
25153;SDS011;47555;51.038;6.280;2022-10-31T05:15:39;27.42;;;13.57;;
25153;SDS011;47555;51.038;6.280;2022-10-31T05:18:05;19.23;;;11.02;;
25153;SDS011;47555;51.038;6.280;2022-10-31T05:20:30;18.90;;;10.77;;
25153;SDS011;47555;51.038;6.280;2022-10-31T05:22:57;16.88;;;10.50;;
25153;SDS011;47555;51.038;6.280;2022-10-31T05:25:25;17.65;;;9.32;;
25153;SDS011;47555;51.038;6.280;2022-10-31T05:27:53;22.67;;;11.60;;
25153;SDS011;47555;51.038;6.280;2022-10-31T05:30:20;19.30;;;11.25;;
25153;SDS011;47555;51.038;6.280;2022-10-31T05:32:50;17.90;;;10.38;;
25153;SDS011;47555;51.038;6.280;2022-10-31T05:35:18;22.98;;;12.32;;
25153;SDS011;47555;51.038;6.280;2022-10-31T05:37:45;24.98;;;13.75;;
25153;SDS011;47555;51.038;6.280;2022-10-31T05:40:11;29.80;;;14.18;;
25153;SDS011;47555;51.038;6.280;2022-10-31T05:42:38;30.75;;;13.65;;
25153;SDS011;47555;51.038;6.280;2022-10-31T05:45:05;35.50;;;14.68;;
25153;SDS011;47555;51.038;6.280;2022-10-31T05:47:32;27.35;;;13.70;;
25153;SDS011;47555;51.038;6.280;2022-10-31T05:49:58;30.02;;;14.65;;
25153;SDS011;47555;51.038;6.280;2022-10-31T05:52:23;29.42;;;15.38;;
25153;SDS011;47555;51.038;6.280;2022-10-31T05:54:49;33.22;;;15.23;;
25153;SDS011;47555;51.038;6.280;2022-10-31T05:57:14;30.17;;;15.27;;
25153;SDS011;47555;51.038;6.280;2022-10-31T05:59:40;31.65;;;15.13;;
25153;SDS011;47555;51.038;6.280;2022-10-31T06:02:05;27.70;;;14.57;;
25153;SDS011;47555;51.038;6.280;2022-10-31T06:04:31;33.40;;;15.93;;
25153;SDS011;47555;51.038;6.280;2022-10-31T06:06:56;33.17;;;15.45;;
25153;SDS011;47555;51.038;6.280;2022-10-31T06:09:22;32.63;;;14.57;;
25153;SDS011;47555;51.038;6.280;2022-10-31T06:11:48;29.23;;;15.10;;
25153;SDS011;47555;51.038;6.280;2022-10-31T06:14:13;32.00;;;16.55;;
25153;SDS011;47555;51.038;6.280;2022-10-31T06:16:39;30.27;;;15.05;;
25153;SDS011;47555;51.038;6.280;2022-10-31T06:19:04;31.15;;;15.57;;
25153;SDS011;47555;51.038;6.280;2022-10-31T06:21:30;32.33;;;14.55;;
25153;SDS011;47555;51.038;6.280;2022-10-31T06:23:55;25.05;;;12.65;;
25153;SDS011;47555;51.038;6.280;2022-10-31T06:26:21;31.85;;;13.40;;
25153;SDS011;47555;51.038;6.280;2022-10-31T06:28:46;37.10;;;15.82;;
25153;SDS011;47555;51.038;6.280;2022-10-31T06:31:12;26.20;;;13.30;;
25153;SDS011;47555;51.038;6.280;2022-10-31T06:33:37;24.25;;;12.18;;
25153;SDS011;47555;51.038;6.280;2022-10-31T06:36:05;23.98;;;12.02;;
25153;SDS011;47555;51.038;6.280;2022-10-31T06:38:35;27.23;;;13.38;;
25153;SDS011;47555;51.038;6.280;2022-10-31T06:41:04;35.42;;;15.90;;
25153;SDS011;47555;51.038;6.280;2022-10-31T06:43:30;29.83;;;15.23;;
25153;SDS011;47555;51.038;6.280;2022-10-31T06:45:57;31.10;;;15.07;;
25153;SDS011;47555;51.038;6.280;2022-10-31T06:48:26;35.50;;;15.57;;
25153;SDS011;47555;51.038;6.280;2022-10-31T06:50:51;25.55;;;14.70;;
25153;SDS011;47555;51.038;6.280;2022-10-31T06:53:17;34.85;;;16.27;;
25153;SDS011;47555;51.038;6.280;2022-10-31T06:55:42;35.75;;;16.17;;
25153;SDS011;47555;51.038;6.280;2022-10-31T06:58:08;28.30;;;13.43;;
25153;SDS011;47555;51.038;6.280;2022-10-31T07:00:34;25.08;;;13.38;;
25153;SDS011;47555;51.038;6.280;2022-10-31T07:03:01;31.75;;;15.07;;
25153;SDS011;47555;51.038;6.280;2022-10-31T07:05:28;30.95;;;16.27;;
25153;SDS011;47555;51.038;6.280;2022-10-31T07:07:55;33.90;;;14.77;;
25153;SDS011;47555;51.038;6.280;2022-10-31T07:10:23;31.02;;;15.43;;
25153;SDS011;47555;51.038;6.280;2022-10-31T07:12:53;29.48;;;13.85;;
25153;SDS011;47555;51.038;6.280;2022-10-31T07:15:20;31.08;;;15.45;;
25153;SDS011;47555;51.038;6.280;2022-10-31T07:17:45;34.90;;;15.88;;
25153;SDS011;47555;51.038;6.280;2022-10-31T07:20:11;26.88;;;15.15;;
25153;SDS011;47555;51.038;6.280;2022-10-31T07:22:36;35.13;;;15.77;;
25153;SDS011;47555;51.038;6.280;2022-10-31T07:25:02;38.28;;;17.65;;
25153;SDS011;47555;51.038;6.280;2022-10-31T07:27:28;31.80;;;14.90;;
25153;SDS011;47555;51.038;6.280;2022-10-31T07:29:59;38.92;;;16.95;;
25153;SDS011;47555;51.038;6.280;2022-10-31T07:32:25;35.65;;;18.08;;
25153;SDS011;47555;51.038;6.280;2022-10-31T07:34:50;33.67;;;14.98;;
25153;SDS011;47555;51.038;6.280;2022-10-31T07:37:16;37.33;;;17.23;;
25153;SDS011;47555;51.038;6.280;2022-10-31T07:39:41;32.78;;;15.57;;
25153;SDS011;47555;51.038;6.280;2022-10-31T07:42:07;35.10;;;16.20;;
25153;SDS011;47555;51.038;6.280;2022-10-31T07:44:33;28.90;;;13.95;;
25153;SDS011;47555;51.038;6.280;2022-10-31T07:46:59;26.75;;;13.82;;
25153;SDS011;47555;51.038;6.280;2022-10-31T07:49:24;29.40;;;15.32;;
25153;SDS011;47555;51.038;6.280;2022-10-31T07:51:50;29.30;;;14.32;;
25153;SDS011;47555;51.038;6.280;2022-10-31T07:54:16;25.70;;;13.85;;
25153;SDS011;47555;51.038;6.280;2022-10-31T07:56:41;24.55;;;13.27;;
25153;SDS011;47555;51.038;6.280;2022-10-31T07:59:07;27.00;;;13.73;;
25153;SDS011;47555;51.038;6.280;2022-10-31T08:01:32;27.40;;;13.05;;
25153;SDS011;47555;51.038;6.280;2022-10-31T08:03:58;25.73;;;13.30;;
25153;SDS011;47555;51.038;6.280;2022-10-31T08:06:23;22.80;;;13.23;;
25153;SDS011;47555;51.038;6.280;2022-10-31T08:08:49;26.52;;;12.10;;
25153;SDS011;47555;51.038;6.280;2022-10-31T08:11:14;26.65;;;13.52;;
25153;SDS011;47555;51.038;6.280;2022-10-31T08:13:40;23.20;;;12.43;;
25153;SDS011;47555;51.038;6.280;2022-10-31T08:16:05;24.02;;;13.65;;
25153;SDS011;47555;51.038;6.280;2022-10-31T08:18:32;22.98;;;11.18;;
25153;SDS011;47555;51.038;6.280;2022-10-31T08:20:57;23.33;;;11.50;;
25153;SDS011;47555;51.038;6.280;2022-10-31T08:23:26;26.35;;;11.60;;
25153;SDS011;47555;51.038;6.280;2022-10-31T08:25:51;21.33;;;10.35;;
25153;SDS011;47555;51.038;6.280;2022-10-31T08:28:17;20.92;;;11.13;;
25153;SDS011;47555;51.038;6.280;2022-10-31T08:30:42;20.52;;;10.80;;
25153;SDS011;47555;51.038;6.280;2022-10-31T08:33:13;19.70;;;10.77;;
25153;SDS011;47555;51.038;6.280;2022-10-31T08:35:39;18.95;;;9.95;;
25153;SDS011;47555;51.038;6.280;2022-10-31T08:38:05;18.25;;;11.07;;
25153;SDS011;47555;51.038;6.280;2022-10-31T08:40:33;20.40;;;9.75;;
25153;SDS011;47555;51.038;6.280;2022-10-31T08:43:08;19.75;;;10.23;;
25153;SDS011;47555;51.038;6.280;2022-10-31T08:45:37;23.85;;;11.15;;
25153;SDS011;47555;51.038;6.280;2022-10-31T08:48:03;17.83;;;9.23;;
25153;SDS011;47555;51.038;6.280;2022-10-31T08:50:31;21.75;;;10.00;;
25153;SDS011;47555;51.038;6.280;2022-10-31T08:53:09;17.65;;;9.90;;
25153;SDS011;47555;51.038;6.280;2022-10-31T08:55:37;19.35;;;9.07;;
25153;SDS011;47555;51.038;6.280;2022-10-31T08:58:04;16.75;;;9.55;;
25153;SDS011;47555;51.038;6.280;2022-10-31T09:00:31;18.90;;;9.68;;
25153;SDS011;47555;51.038;6.280;2022-10-31T09:02:59;18.55;;;9.60;;
25153;SDS011;47555;51.038;6.280;2022-10-31T09:05:26;20.27;;;10.48;;
25153;SDS011;47555;51.038;6.280;2022-10-31T09:07:56;19.52;;;9.80;;
25153;SDS011;47555;51.038;6.280;2022-10-31T09:10:22;20.77;;;10.57;;
25153;SDS011;47555;51.038;6.280;2022-10-31T09:12:56;17.35;;;9.82;;
25153;SDS011;47555;51.038;6.280;2022-10-31T09:15:26;17.88;;;9.75;;
25153;SDS011;47555;51.038;6.280;2022-10-31T09:17:52;17.05;;;9.68;;
25153;SDS011;47555;51.038;6.280;2022-10-31T09:20:19;17.45;;;9.48;;
25153;SDS011;47555;51.038;6.280;2022-10-31T09:22:45;18.25;;;9.63;;
25153;SDS011;47555;51.038;6.280;2022-10-31T09:25:11;21.05;;;9.70;;
25153;SDS011;47555;51.038;6.280;2022-10-31T09:27:36;24.13;;;9.43;;
25153;SDS011;47555;51.038;6.280;2022-10-31T09:30:02;19.38;;;9.35;;
25153;SDS011;47555;51.038;6.280;2022-10-31T09:32:28;20.17;;;9.45;;
25153;SDS011;47555;51.038;6.280;2022-10-31T09:34:54;19.55;;;9.85;;
25153;SDS011;47555;51.038;6.280;2022-10-31T09:37:20;19.63;;;9.15;;
25153;SDS011;47555;51.038;6.280;2022-10-31T09:39:45;16.63;;;8.60;;
25153;SDS011;47555;51.038;6.280;2022-10-31T09:42:20;18.33;;;9.05;;
25153;SDS011;47555;51.038;6.280;2022-10-31T09:51:05;15.18;;;8.80;;
25153;SDS011;47555;51.038;6.280;2022-10-31T09:53:36;15.10;;;8.38;;
25153;SDS011;47555;51.038;6.280;2022-10-31T09:56:10;16.38;;;8.40;;
25153;SDS011;47555;51.038;6.280;2022-10-31T09:58:48;14.48;;;8.40;;
25153;SDS011;47555;51.038;6.280;2022-10-31T10:01:28;18.35;;;8.15;;
25153;SDS011;47555;51.038;6.280;2022-10-31T10:07:00;17.33;;;7.75;;
25153;SDS011;47555;51.038;6.280;2022-10-31T10:09:35;13.88;;;7.45;;
25153;SDS011;47555;51.038;6.280;2022-10-31T10:16:07;15.85;;;7.00;;
25153;SDS011;47555;51.038;6.280;2022-10-31T10:18:31;14.32;;;7.78;;
25153;SDS011;47555;51.038;6.280;2022-10-31T10:26:42;17.98;;;7.95;;
25153;SDS011;47555;51.038;6.280;2022-10-31T10:32:02;14.73;;;7.70;;
25153;SDS011;47555;51.038;6.280;2022-10-31T10:34:47;17.73;;;7.93;;
25153;SDS011;47555;51.038;6.280;2022-10-31T10:37:24;14.27;;;7.25;;
25153;SDS011;47555;51.038;6.280;2022-10-31T10:40:13;17.85;;;7.55;;
25153;SDS011;47555;51.038;6.280;2022-10-31T10:46:09;17.42;;;8.23;;
25153;SDS011;47555;51.038;6.280;2022-10-31T10:51:35;17.55;;;8.23;;
25153;SDS011;47555;51.038;6.280;2022-10-31T10:59:59;16.92;;;8.38;;
25153;SDS011;47555;51.038;6.280;2022-10-31T11:02:31;15.63;;;8.00;;
25153;SDS011;47555;51.038;6.280;2022-10-31T11:04:58;17.35;;;8.30;;
25153;SDS011;47555;51.038;6.280;2022-10-31T11:07:36;16.55;;;9.25;;
25153;SDS011;47555;51.038;6.280;2022-10-31T11:10:04;19.58;;;9.15;;
25153;SDS011;47555;51.038;6.280;2022-10-31T11:12:37;19.02;;;9.48;;
25153;SDS011;47555;51.038;6.280;2022-10-31T11:15:21;21.92;;;9.85;;
25153;SDS011;47555;51.038;6.280;2022-10-31T11:17:49;17.55;;;8.50;;
25153;SDS011;47555;51.038;6.280;2022-10-31T11:22:43;16.58;;;8.68;;
25153;SDS011;47555;51.038;6.280;2022-10-31T11:27:44;20.80;;;10.18;;
25153;SDS011;47555;51.038;6.280;2022-10-31T11:30:12;16.83;;;8.88;;
25153;SDS011;47555;51.038;6.280;2022-10-31T11:32:42;22.40;;;9.38;;
25153;SDS011;47555;51.038;6.280;2022-10-31T11:35:12;14.52;;;7.68;;
25153;SDS011;47555;51.038;6.280;2022-10-31T11:37:43;16.60;;;8.45;;
25153;SDS011;47555;51.038;6.280;2022-10-31T11:40:17;15.27;;;8.05;;
25153;SDS011;47555;51.038;6.280;2022-10-31T11:42:47;16.33;;;8.43;;
25153;SDS011;47555;51.038;6.280;2022-10-31T11:45:15;16.17;;;8.20;;
25153;SDS011;47555;51.038;6.280;2022-10-31T11:47:41;13.63;;;7.22;;
25153;SDS011;47555;51.038;6.280;2022-10-31T11:50:11;12.10;;;7.50;;
25153;SDS011;47555;51.038;6.280;2022-10-31T11:52:45;13.27;;;6.97;;
25153;SDS011;47555;51.038;6.280;2022-10-31T11:57:46;19.48;;;7.93;;
25153;SDS011;47555;51.038;6.280;2022-10-31T12:00:21;12.95;;;6.20;;
25153;SDS011;47555;51.038;6.280;2022-10-31T12:02:47;11.88;;;6.13;;
25153;SDS011;47555;51.038;6.280;2022-10-31T12:05:25;14.18;;;6.60;;
25153;SDS011;47555;51.038;6.280;2022-10-31T12:07:57;9.73;;;5.80;;
25153;SDS011;47555;51.038;6.280;2022-10-31T12:10:24;10.95;;;5.85;;
25153;SDS011;47555;51.038;6.280;2022-10-31T12:13:08;16.98;;;6.72;;
25153;SDS011;47555;51.038;6.280;2022-10-31T12:15:57;13.50;;;6.55;;
25153;SDS011;47555;51.038;6.280;2022-10-31T12:26:33;11.48;;;5.80;;
25153;SDS011;47555;51.038;6.280;2022-10-31T12:29:18;11.82;;;6.00;;
25153;SDS011;47555;51.038;6.280;2022-10-31T12:32:19;12.77;;;6.40;;
25153;SDS011;47555;51.038;6.280;2022-10-31T12:43:36;11.02;;;6.32;;
25153;SDS011;47555;51.038;6.280;2022-10-31T12:46:04;12.65;;;5.68;;
25153;SDS011;47555;51.038;6.280;2022-10-31T12:56:55;10.43;;;5.82;;
25153;SDS011;47555;51.038;6.280;2022-10-31T12:59:33;10.05;;;6.57;;
25153;SDS011;47555;51.038;6.280;2022-10-31T13:02:12;13.93;;;6.60;;
25153;SDS011;47555;51.038;6.280;2022-10-31T13:04:57;14.23;;;5.30;;
25153;SDS011;47555;51.038;6.280;2022-10-31T13:10:13;11.50;;;5.85;;
25153;SDS011;47555;51.038;6.280;2022-10-31T13:12:44;12.45;;;5.97;;
25153;SDS011;47555;51.038;6.280;2022-10-31T13:15:14;9.85;;;6.55;;
25153;SDS011;47555;51.038;6.280;2022-10-31T13:17:56;11.13;;;5.53;;
25153;SDS011;47555;51.038;6.280;2022-10-31T13:20:34;12.32;;;6.97;;
25153;SDS011;47555;51.038;6.280;2022-10-31T13:23:16;10.50;;;5.85;;
25153;SDS011;47555;51.038;6.280;2022-10-31T13:25:50;13.88;;;6.00;;
25153;SDS011;47555;51.038;6.280;2022-10-31T13:31:12;14.38;;;5.63;;
25153;SDS011;47555;51.038;6.280;2022-10-31T13:33:54;12.95;;;5.72;;
25153;SDS011;47555;51.038;6.280;2022-10-31T13:39:21;11.38;;;5.57;;
25153;SDS011;47555;51.038;6.280;2022-10-31T13:45:12;13.25;;;5.57;;
25153;SDS011;47555;51.038;6.280;2022-10-31T13:47:43;12.80;;;6.80;;
25153;SDS011;47555;51.038;6.280;2022-10-31T13:50:40;10.93;;;5.45;;
25153;SDS011;47555;51.038;6.280;2022-10-31T13:53:14;12.52;;;5.50;;
25153;SDS011;47555;51.038;6.280;2022-10-31T13:55:46;12.65;;;5.82;;
25153;SDS011;47555;51.038;6.280;2022-10-31T13:58:27;11.15;;;5.72;;
25153;SDS011;47555;51.038;6.280;2022-10-31T14:00:58;12.75;;;5.80;;
25153;SDS011;47555;51.038;6.280;2022-10-31T14:03:40;12.45;;;5.05;;
25153;SDS011;47555;51.038;6.280;2022-10-31T14:06:09;14.05;;;6.07;;
25153;SDS011;47555;51.038;6.280;2022-10-31T14:08:36;9.93;;;5.45;;
25153;SDS011;47555;51.038;6.280;2022-10-31T14:11:06;14.60;;;5.45;;
25153;SDS011;47555;51.038;6.280;2022-10-31T14:16:06;13.60;;;5.25;;
25153;SDS011;47555;51.038;6.280;2022-10-31T14:18:43;10.40;;;5.63;;
25153;SDS011;47555;51.038;6.280;2022-10-31T14:23:50;14.73;;;5.30;;
25153;SDS011;47555;51.038;6.280;2022-10-31T14:28:52;12.52;;;5.43;;
25153;SDS011;47555;51.038;6.280;2022-10-31T14:31:43;12.30;;;5.63;;
25153;SDS011;47555;51.038;6.280;2022-10-31T14:34:18;17.48;;;5.82;;
25153;SDS011;47555;51.038;6.280;2022-10-31T14:36:49;9.48;;;5.30;;
25153;SDS011;47555;51.038;6.280;2022-10-31T14:42:22;15.13;;;5.35;;
25153;SDS011;47555;51.038;6.280;2022-10-31T14:45:16;8.05;;;4.60;;
25153;SDS011;47555;51.038;6.280;2022-10-31T14:47:57;11.13;;;5.03;;
25153;SDS011;47555;51.038;6.280;2022-10-31T14:50:50;9.57;;;4.70;;
25153;SDS011;47555;51.038;6.280;2022-10-31T14:55:55;11.52;;;5.10;;
25153;SDS011;47555;51.038;6.280;2022-10-31T14:58:23;8.82;;;4.97;;
25153;SDS011;47555;51.038;6.280;2022-10-31T15:00:58;10.88;;;4.65;;
25153;SDS011;47555;51.038;6.280;2022-10-31T15:03:26;12.13;;;5.60;;
25153;SDS011;47555;51.038;6.280;2022-10-31T15:05:56;13.48;;;4.78;;
25153;SDS011;47555;51.038;6.280;2022-10-31T15:08:35;6.68;;;4.13;;
25153;SDS011;47555;51.038;6.280;2022-10-31T15:11:15;10.57;;;5.13;;
25153;SDS011;47555;51.038;6.280;2022-10-31T15:13:43;13.23;;;4.70;;
25153;SDS011;47555;51.038;6.280;2022-10-31T15:16:09;11.13;;;4.90;;
25153;SDS011;47555;51.038;6.280;2022-10-31T15:18:38;9.30;;;4.53;;
25153;SDS011;47555;51.038;6.280;2022-10-31T15:21:14;12.70;;;4.63;;
25153;SDS011;47555;51.038;6.280;2022-10-31T15:23:41;8.05;;;4.65;;
25153;SDS011;47555;51.038;6.280;2022-10-31T15:26:11;11.00;;;4.20;;
25153;SDS011;47555;51.038;6.280;2022-10-31T15:28:43;9.30;;;4.68;;
25153;SDS011;47555;51.038;6.280;2022-10-31T15:31:13;11.57;;;4.47;;
25153;SDS011;47555;51.038;6.280;2022-10-31T15:33:41;11.18;;;4.60;;
25153;SDS011;47555;51.038;6.280;2022-10-31T15:36:18;7.82;;;4.60;;
25153;SDS011;47555;51.038;6.280;2022-10-31T15:38:48;9.98;;;4.47;;
25153;SDS011;47555;51.038;6.280;2022-10-31T15:41:26;11.68;;;4.65;;
25153;SDS011;47555;51.038;6.280;2022-10-31T15:44:00;14.88;;;5.38;;
25153;SDS011;47555;51.038;6.280;2022-10-31T15:46:54;8.90;;;4.55;;
25153;SDS011;47555;51.038;6.280;2022-10-31T15:49:38;9.90;;;4.75;;
25153;SDS011;47555;51.038;6.280;2022-10-31T15:52:09;13.25;;;5.00;;
25153;SDS011;47555;51.038;6.280;2022-10-31T15:54:48;12.50;;;5.47;;
25153;SDS011;47555;51.038;6.280;2022-10-31T15:57:17;8.30;;;4.25;;
25153;SDS011;47555;51.038;6.280;2022-10-31T15:59:44;11.07;;;4.88;;
25153;SDS011;47555;51.038;6.280;2022-10-31T16:02:13;11.73;;;4.65;;
25153;SDS011;47555;51.038;6.280;2022-10-31T16:04:56;8.75;;;4.57;;
25153;SDS011;47555;51.038;6.280;2022-10-31T16:07:25;13.07;;;4.32;;
25153;SDS011;47555;51.038;6.280;2022-10-31T16:09:55;7.95;;;4.45;;
25153;SDS011;47555;51.038;6.280;2022-10-31T16:12:23;13.53;;;5.17;;
25153;SDS011;47555;51.038;6.280;2022-10-31T16:14:53;10.20;;;5.90;;
25153;SDS011;47555;51.038;6.280;2022-10-31T16:17:20;7.97;;;4.40;;
25153;SDS011;47555;51.038;6.280;2022-10-31T16:19:50;9.13;;;4.70;;
25153;SDS011;47555;51.038;6.280;2022-10-31T16:22:29;10.35;;;4.00;;
25153;SDS011;47555;51.038;6.280;2022-10-31T16:25:01;11.77;;;5.35;;
25153;SDS011;47555;51.038;6.280;2022-10-31T16:27:39;9.05;;;4.43;;
25153;SDS011;47555;51.038;6.280;2022-10-31T16:33:26;8.15;;;4.00;;
25153;SDS011;47555;51.038;6.280;2022-10-31T16:36:01;11.40;;;5.35;;
25153;SDS011;47555;51.038;6.280;2022-10-31T16:38:45;9.93;;;4.35;;
25153;SDS011;47555;51.038;6.280;2022-10-31T16:41:10;9.52;;;4.55;;
25153;SDS011;47555;51.038;6.280;2022-10-31T16:43:36;10.50;;;4.45;;
25153;SDS011;47555;51.038;6.280;2022-10-31T16:46:02;11.35;;;5.03;;
25153;SDS011;47555;51.038;6.280;2022-10-31T16:48:28;9.70;;;4.78;;
25153;SDS011;47555;51.038;6.280;2022-10-31T16:50:53;11.13;;;4.47;;
25153;SDS011;47555;51.038;6.280;2022-10-31T16:53:19;13.90;;;5.28;;
25153;SDS011;47555;51.038;6.280;2022-10-31T16:55:45;12.75;;;5.10;;
25153;SDS011;47555;51.038;6.280;2022-10-31T16:58:20;11.15;;;5.15;;
25153;SDS011;47555;51.038;6.280;2022-10-31T17:00:48;10.18;;;5.45;;
25153;SDS011;47555;51.038;6.280;2022-10-31T17:03:14;13.13;;;4.95;;